TimeEDT,TemperatureF,Dew PointF,Humidity,Sea Level PressureIn,VisibilityMPH,Wind Direction,Wind SpeedMPH,Gust SpeedMPH,PrecipitationIn,Events,Conditions,WindDirDegrees,DateUTC
12:53 AM,41.0,37.9,89,30.01,10.0,SSW,5.8,-,N/A,,Clear,200,2013-10-20 04:53:00
1:53 AM,41.0,37.9,89,30.01,10.0,SW,5.8,-,N/A,,Clear,220,2013-10-20 05:53:00
2:53 AM,39.0,36.0,89,30.01,10.0,Calm,Calm,-,N/A,,Clear,0,2013-10-20 06:53:00
3:53 AM,41.0,36.0,82,30.00,10.0,SW,6.9,-,N/A,,Clear,220,2013-10-20 07:53:00
4:53 AM,39.0,35.1,86,30.00,10.0,Calm,Calm,-,N/A,,Clear,0,2013-10-20 08:53:00
5:53 AM,39.0,35.1,86,30.01,10.0,SSW,5.8,-,N/A,,Clear,200,2013-10-20 09:53:00
6:53 AM,39.0,35.1,86,30.01,10.0,South,4.6,-,N/A,,Clear,170,2013-10-20 10:53:00
7:53 AM,37.0,34.0,89,30.02,10.0,SSE,3.5,-,N/A,,Clear,150,2013-10-20 11:53:00
8:53 AM,42.1,37.0,82,30.04,10.0,SSW,4.6,-,N/A,,Clear,200,2013-10-20 12:53:00
9:53 AM,46.9,37.9,71,30.05,10.0,SW,12.7,-,N/A,,Clear,230,2013-10-20 13:53:00
10:53 AM,50.0,39.0,66,30.05,10.0,SW,12.7,-,N/A,,Clear,220,2013-10-20 14:53:00
11:53 AM,53.1,39.9,61,30.05,10.0,SW,11.5,18.4,N/A,,Partly Cloudy,220,2013-10-20 15:53:00
12:53 PM,57.0,39.9,53,30.04,10.0,SW,12.7,20.7,N/A,,Clear,220,2013-10-20 16:53:00
1:53 PM,57.0,39.9,53,30.03,10.0,SSW,11.5,-,N/A,,Clear,210,2013-10-20 17:53:00
2:53 PM,57.9,39.9,51,30.02,10.0,SSW,13.8,-,N/A,,Clear,210,2013-10-20 18:53:00
3:53 PM,60.1,39.9,47,30.01,10.0,SW,10.4,-,N/A,,Clear,220,2013-10-20 19:53:00
4:53 PM,59.0,39.0,48,30.01,10.0,SSW,11.5,-,N/A,,Clear,210,2013-10-20 20:53:00
5:53 PM,57.9,39.0,49,30.01,10.0,SSW,10.4,-,N/A,,Clear,210,2013-10-20 21:53:00
6:53 PM,53.1,39.0,59,30.02,10.0,South,5.8,-,N/A,,Clear,190,2013-10-20 22:53:00
7:53 PM,51.1,37.9,61,30.04,10.0,South,4.6,-,N/A,,Clear,190,2013-10-20 23:53:00
8:53 PM,51.1,37.9,61,30.04,10.0,South,3.5,-,N/A,,Clear,190,2013-10-21 00:53:00
9:53 PM,48.9,37.9,66,30.04,10.0,South,4.6,-,N/A,,Clear,190,2013-10-21 01:53:00
10:53 PM,48.0,37.0,66,30.04,10.0,South,3.5,-,N/A,,Clear,180,2013-10-21 02:53:00
11:53 PM,48.0,37.0,66,30.02,10.0,SSE,3.5,-,N/A,,Clear,160,2013-10-21 03:53:00